Time;durP1;ratioP1;P1;durP2;ratioP2;P2;SDS_P1;SDS_P2;PMS_P1;PMS_P2;Temp;Humidity;BMP_temperature;BMP_pressure;BME280_temperature;BME280_humidity;BME280_pressure;Samples;Min_cycle;Max_cycle;Signal;HPM_P1;HPM_P2
2021/06/11 00:01:42;;;;;;;20.27;18.40;;;15.80;99.90;;;;;;4956738;28;20519;-75
2021/06/11 00:04:09;;;;;;;21.20;19.13;;;15.70;99.90;;;;;;4956424;28;20468;-74
2021/06/11 00:06:36;;;;;;;21.65;19.63;;;15.70;99.90;;;;;;4956212;28;20035;-74
2021/06/11 00:09:03;;;;;;;22.02;19.73;;;15.70;99.90;;;;;;4956843;28;20023;-73
2021/06/11 00:11:30;;;;;;;22.02;19.92;;;15.80;99.90;;;;;;4956313;29;20031;-74
2021/06/11 00:13:56;;;;;;;23.67;21.30;;;15.60;99.90;;;;;;4974772;28;20042;-74
2021/06/11 00:16:22;;;;;;;21.73;19.75;;;15.50;99.90;;;;;;4959335;28;20035;-74
2021/06/11 00:18:48;;;;;;;21.45;19.17;;;15.50;99.90;;;;;;4956556;28;20031;-75
2021/06/11 00:21:14;;;;;;;21.13;18.88;;;15.60;99.90;;;;;;4955704;28;20035;-74
2021/06/11 00:23:41;;;;;;;21.40;19.33;;;15.50;99.90;;;;;;4955802;28;20489;-74
2021/06/11 00:26:07;;;;;;;21.65;19.85;;;15.50;99.90;;;;;;4960840;28;20042;-73
2021/06/11 00:28:34;;;;;;;22.70;19.17;;;15.50;99.90;;;;;;4974317;28;20031;-75
2021/06/11 00:31:00;;;;;;;23.30;21.00;;;15.40;99.90;;;;;;4957500;28;20044;-75
2021/06/11 00:33:26;;;;;;;26.52;21.50;;;15.20;99.90;;;;;;4968950;28;20039;-74
2021/06/11 00:35:53;;;;;;;23.80;21.63;;;15.10;99.90;;;;;;4956416;28;20370;-74
2021/06/11 00:38:19;;;;;;;24.15;21.88;;;15.10;99.90;;;;;;4955843;28;20047;-73
2021/06/11 00:40:46;;;;;;;24.48;22.17;;;15.20;99.90;;;;;;4956310;28;20043;-74
2021/06/11 00:43:12;;;;;;;23.77;21.35;;;15.20;99.90;;;;;;4955943;28;20492;-74
2021/06/11 00:45:44;;;;;;;23.90;21.67;;;15.30;99.90;;;;;;4955668;28;20035;-75
2021/06/11 00:48:12;;;;;;;23.23;20.98;;;15.40;99.90;;;;;;4956008;28;20043;-75
2021/06/11 00:50:38;;;;;;;22.70;20.33;;;15.40;99.90;;;;;;4965464;28;20610;-75
2021/06/11 00:53:10;;;;;;;21.70;19.60;;;15.30;99.90;;;;;;4955955;28;20480;-73
2021/06/11 00:55:44;;;;;;;23.15;21.05;;;15.30;99.90;;;;;;4960515;28;20037;-74
2021/06/11 00:58:15;;;;;;;22.80;20.60;;;15.30;99.90;;;;;;4966525;28;20027;-74
2021/06/11 01:00:43;;;;;;;22.58;20.42;;;15.30;99.90;;;;;;4955186;28;20047;-75
2021/06/11 01:03:11;;;;;;;22.45;20.27;;;15.20;99.90;;;;;;4970126;28;20509;-75
2021/06/11 01:05:41;;;;;;;23.05;20.88;;;15.20;99.90;;;;;;4954196;28;20043;-75
2021/06/11 01:08:10;;;;;;;22.25;20.25;;;15.20;99.90;;;;;;4967621;28;20050;-74
2021/06/11 01:10:36;;;;;;;23.35;20.73;;;15.20;99.90;;;;;;4972742;28;20061;-74
2021/06/11 01:13:04;;;;;;;23.23;21.05;;;15.30;99.90;;;;;;4956895;28;20043;-74
2021/06/11 01:15:30;;;;;;;23.73;21.50;;;15.30;99.90;;;;;;4968033;28;20035;-74
2021/06/11 01:17:57;;;;;;;24.25;21.88;;;15.20;99.90;;;;;;4954056;28;20035;-74
2021/06/11 01:20:23;;;;;;;22.13;19.98;;;15.30;99.90;;;;;;4976630;28;20039;-74
2021/06/11 01:22:52;;;;;;;22.90;20.83;;;15.20;99.90;;;;;;4973060;28;20046;-74
2021/06/11 01:25:26;;;;;;;23.45;21.17;;;15.10;99.90;;;;;;4968682;28;20465;-74
2021/06/11 01:27:52;;;;;;;24.67;22.38;;;15.00;99.90;;;;;;4955258;28;20031;-74
2021/06/11 01:30:25;;;;;;;25.33;22.93;;;15.00;99.90;;;;;;4962888;28;20424;-74
2021/06/11 01:32:55;;;;;;;26.25;23.75;;;14.80;99.90;;;;;;4955368;28;20066;-74
2021/06/11 01:35:26;;;;;;;25.40;23.03;;;14.80;99.90;;;;;;4969433;28;20039;-74
2021/06/11 01:37:57;;;;;;;26.42;23.73;;;14.80;99.90;;;;;;4955447;28;20492;-74
2021/06/11 01:40:23;;;;;;;25.38;22.77;;;14.90;99.90;;;;;;4954159;28;20062;-74
2021/06/11 01:42:50;;;;;;;24.75;22.45;;;14.90;99.90;;;;;;4955505;28;20377;-74
2021/06/11 01:45:17;;;;;;;24.67;22.10;;;14.90;99.90;;;;;;4973066;28;20428;-74
2021/06/11 01:47:49;;;;;;;25.02;22.63;;;14.90;99.90;;;;;;4956583;28;20038;-74
2021/06/11 01:50:25;;;;;;;24.83;22.50;;;15.00;99.90;;;;;;4954307;28;20054;-74
2021/06/11 01:52:54;;;;;;;24.23;21.70;;;14.80;99.90;;;;;;4960642;28;20042;-74
2021/06/11 01:55:21;;;;;;;23.90;21.63;;;14.70;99.90;;;;;;4958940;28;20050;-74
2021/06/11 01:57:48;;;;;;;24.95;22.40;;;14.90;99.90;;;;;;4958059;28;20054;-73
2021/06/11 02:00:17;;;;;;;23.50;21.27;;;14.70;99.90;;;;;;4969977;28;20035;-75
2021/06/11 02:02:44;;;;;;;23.38;21.13;;;14.60;99.90;;;;;;4954329;28;20039;-75
2021/06/11 02:05:11;;;;;;;24.17;21.55;;;14.50;99.90;;;;;;4954749;28;20042;-75
2021/06/11 02:07:38;;;;;;;23.40;21.02;;;14.40;99.90;;;;;;4954035;28;20212;-75
2021/06/11 02:10:06;;;;;;;24.70;22.17;;;14.40;99.90;;;;;;4954406;28;20038;-75
2021/06/11 02:12:32;;;;;;;26.10;23.42;;;14.40;99.90;;;;;;4953668;28;20058;-74
2021/06/11 02:15:01;;;;;;;26.75;24.08;;;14.40;99.90;;;;;;4954447;28;20050;-75
2021/06/11 02:17:29;;;;;;;26.98;24.35;;;14.40;99.90;;;;;;4953447;28;20062;-75
2021/06/11 02:19:57;;;;;;;26.77;23.77;;;14.40;99.90;;;;;;4954025;28;20511;-75
2021/06/11 02:22:24;;;;;;;25.45;23.13;;;14.40;99.90;;;;;;4953941;28;20039;-75
2021/06/11 02:24:50;;;;;;;24.73;22.27;;;14.40;99.90;;;;;;4953624;28;20043;-74
2021/06/11 02:27:19;;;;;;;25.55;22.85;;;14.40;99.90;;;;;;4954242;28;20039;-74
2021/06/11 02:29:45;;;;;;;24.80;22.48;;;14.40;99.90;;;;;;4954194;28;20043;-74
2021/06/11 02:32:11;;;;;;;24.20;21.75;;;14.30;99.90;;;;;;4964946;28;20043;-74
2021/06/11 02:34:37;;;;;;;24.63;22.20;;;14.10;99.90;;;;;;4953579;28;20043;-74
2021/06/11 02:37:05;;;;;;;24.88;22.48;;;13.90;99.90;;;;;;4954515;28;20027;-74
2021/06/11 02:39:31;;;;;;;25.42;22.83;;;13.90;99.90;;;;;;4964702;28;20041;-75
2021/06/11 02:42:07;;;;;;;26.17;23.67;;;13.80;99.90;;;;;;4963904;28;20107;-74
2021/06/11 02:44:39;;;;;;;24.52;22.10;;;13.70;99.90;;;;;;4969985;28;20054;-73
2021/06/11 02:47:18;;;;;;;25.92;23.42;;;13.70;99.90;;;;;;4972560;28;20031;-73
2021/06/11 02:50:04;;;;;;;26.02;23.13;;;13.70;99.90;;;;;;4964319;28;20370;-75
2021/06/11 02:52:32;;;;;;;27.48;24.60;;;13.70;99.90;;;;;;4968009;28;20061;-74
2021/06/11 02:55:04;;;;;;;25.92;23.33;;;13.80;99.90;;;;;;4954745;28;20043;-74
2021/06/11 02:58:03;;;;;;;27.80;25.30;;;13.90;99.90;;;;;;4968095;28;20038;-74
2021/06/11 03:00:30;;;;;;;25.42;22.83;;;13.90;99.90;;;;;;4953638;28;20039;-73
2021/06/11 03:03:04;;;;;;;25.65;22.80;;;13.80;99.90;;;;;;4954383;28;20392;-74
2021/06/11 03:05:32;;;;;;;26.98;24.30;;;13.60;99.90;;;;;;4971704;28;20033;-73
2021/06/11 03:08:00;;;;;;;26.70;24.00;;;13.70;99.90;;;;;;4961602;28;20048;-73
2021/06/11 03:10:31;;;;;;;26.52;24.02;;;13.70;99.90;;;;;;4960797;28;20481;-75
2021/06/11 03:12:59;;;;;;;26.95;24.23;;;13.70;99.90;;;;;;4965908;28;20389;-74
2021/06/11 03:15:29;;;;;;;27.75;23.77;;;13.70;99.90;;;;;;4953368;28;20045;-74
2021/06/11 03:17:59;;;;;;;26.05;23.35;;;13.70;99.90;;;;;;4953808;28;20039;-74
2021/06/11 03:20:31;;;;;;;26.88;23.38;;;13.80;99.90;;;;;;4953602;28;20458;-74
2021/06/11 03:23:03;;;;;;;25.42;22.92;;;13.90;99.90;;;;;;4962354;28;20488;-74
2021/06/11 03:25:40;;;;;;;23.92;21.63;;;13.90;99.90;;;;;;4972711;28;20037;-74
2021/06/11 03:28:15;;;;;;;24.80;22.17;;;13.60;99.90;;;;;;4953924;28;20043;-74
2021/06/11 03:30:55;;;;;;;25.70;23.10;;;13.40;99.90;;;;;;4959854;28;20658;-74
2021/06/11 03:33:27;;;;;;;25.25;22.27;;;13.50;99.90;;;;;;4953085;28;20055;-74
2021/06/11 03:36:03;;;;;;;27.08;23.77;;;13.40;99.90;;;;;;4969401;28;20388;-74
2021/06/11 03:38:34;;;;;;;26.83;24.05;;;13.40;99.90;;;;;;4955480;28;20036;-74
2021/06/11 03:41:02;;;;;;;26.83;24.13;;;13.40;99.90;;;;;;4955743;28;20412;-73
2021/06/11 03:43:29;;;;;;;28.55;25.63;;;13.30;99.90;;;;;;4971622;28;20034;-73
2021/06/11 03:45:58;;;;;;;27.13;24.45;;;13.30;99.90;;;;;;4954129;28;20043;-74
2021/06/11 03:48:27;;;;;;;25.73;23.23;;;13.40;99.90;;;;;;4964138;28;20035;-74
2021/06/11 03:50:54;;;;;;;24.60;22.23;;;13.40;99.90;;;;;;4959701;28;20043;-73
2021/06/11 03:53:23;;;;;;;25.05;22.65;;;13.30;99.90;;;;;;4970189;28;20047;-74
2021/06/11 03:55:55;;;;;;;23.77;21.38;;;13.40;99.90;;;;;;4955893;28;20035;-73
2021/06/11 03:58:39;;;;;;;24.48;21.85;;;13.40;99.90;;;;;;4956616;28;20028;-74
2021/06/11 04:01:09;;;;;;;23.42;20.98;;;13.60;99.90;;;;;;4956732;28;20528;-73
2021/06/11 04:03:42;;;;;;;22.35;20.25;;;13.90;99.90;;;;;;4956612;28;20043;-73
2021/06/11 04:06:13;;;;;;;21.13;19.00;;;14.10;99.90;;;;;;4958349;28;20043;-73
2021/06/11 04:08:39;;;;;;;20.63;18.60;;;14.20;99.90;;;;;;4966711;28;20370;-74
2021/06/11 04:11:10;;;;;;;21.80;19.80;;;14.00;99.90;;;;;;4956871;28;20035;-74
2021/06/11 04:13:54;;;;;;;21.58;19.40;;;14.00;99.90;;;;;;4956236;28;20043;-74
2021/06/11 04:16:44;;;;;;;21.77;19.58;;;14.00;99.90;;;;;;4956345;28;20043;-74
2021/06/11 04:19:17;;;;;;;18.05;16.15;;;14.30;99.90;;;;;;4956752;28;20039;-73
2021/06/11 04:21:47;;;;;;;16.35;14.68;;;15.20;99.90;;;;;;4974585;28;20031;-74
2021/06/11 04:24:16;;;;;;;18.30;14.02;;;16.30;99.90;;;;;;4974785;28;20031;-74
2021/06/11 04:26:43;;;;;;;20.45;12.60;;;17.00;99.90;;;;;;4957758;28;20645;-74
2021/06/11 04:29:12;;;;;;;13.68;12.38;;;17.30;99.90;;;;;;4966683;28;20369;-74
2021/06/11 04:31:39;;;;;;;12.90;11.55;;;17.80;99.90;;;;;;4955578;28;20047;-74
2021/06/11 04:34:05;;;;;;;12.02;10.95;;;18.20;99.90;;;;;;4956094;28;20386;-74
2021/06/11 04:36:34;;;;;;;16.13;12.45;;;18.60;99.60;;;;;;4955675;28;20031;-74
2021/06/11 04:39:08;;;;;;;12.30;11.05;;;18.90;98.00;;;;;;4970405;28;20051;-74
2021/06/11 04:41:35;;;;;;;11.77;10.68;;;18.80;97.60;;;;;;4969949;28;20046;-74
2021/06/11 04:44:04;;;;;;;11.82;10.80;;;19.10;96.70;;;;;;4955298;28;20050;-74
2021/06/11 04:46:30;;;;;;;11.18;10.15;;;19.90;95.10;;;;;;4955525;28;20039;-74
2021/06/11 04:48:57;;;;;;;11.38;10.43;;;20.60;91.80;;;;;;4970972;28;20050;-74
2021/06/11 04:51:24;;;;;;;11.95;10.82;;;21.10;90.80;;;;;;4958966;28;20379;-74
2021/06/11 04:53:51;;;;;;;11.13;10.13;;;21.30;90.40;;;;;;4955789;28;20023;-73
2021/06/11 04:56:17;;;;;;;10.45;9.43;;;21.50;88.30;;;;;;4968932;28;20047;-75
2021/06/11 04:58:44;;;;;;;10.05;9.15;;;22.10;85.20;;;;;;4961636;28;20034;-75
2021/06/11 05:01:11;;;;;;;12.75;10.23;;;22.80;80.10;;;;;;4962086;28;20416;-73
2021/06/11 05:03:37;;;;;;;13.65;9.80;;;23.00;77.60;;;;;;4955682;28;20373;-73
2021/06/11 05:06:04;;;;;;;10.35;9.45;;;22.20;78.30;;;;;;4966884;28;20496;-72
2021/06/11 05:08:31;;;;;;;10.15;9.25;;;21.60;79.80;;;;;;4954354;28;20386;-72
2021/06/11 05:10:58;;;;;;;13.50;10.32;;;21.90;79.70;;;;;;4963227;28;20055;-72
2021/06/11 05:13:24;;;;;;;10.63;9.63;;;22.90;77.90;;;;;;4963779;28;20047;-72
2021/06/11 05:15:51;;;;;;;10.75;9.73;;;22.60;76.80;;;;;;4957204;28;20039;-72
2021/06/11 05:18:17;;;;;;;10.93;10.02;;;22.70;77.70;;;;;;4956799;28;20046;-71
2021/06/11 05:20:43;;;;;;;11.65;10.52;;;23.20;76.40;;;;;;4963498;28;20038;-70
2021/06/11 05:23:09;;;;;;;12.75;11.65;;;23.60;74.80;;;;;;4973557;28;20038;-74
2021/06/11 05:25:37;;;;;;;11.05;10.15;;;23.80;74.80;;;;;;4958650;28;20039;-73
2021/06/11 05:28:04;;;;;;;12.27;11.15;;;24.00;74.50;;;;;;4969753;28;20043;-74
2021/06/11 05:30:31;;;;;;;13.07;11.98;;;24.70;71.20;;;;;;4954356;28;20062;-73
2021/06/11 05:32:58;;;;;;;13.88;12.48;;;24.40;71.60;;;;;;4954914;28;20043;-73
2021/06/11 05:35:24;;;;;;;12.20;11.20;;;24.70;71.10;;;;;;4954732;28;20031;-73
2021/06/11 05:37:51;;;;;;;12.95;11.80;;;25.20;69.90;;;;;;4954744;28;20470;-72
2021/06/11 05:40:17;;;;;;;12.88;11.68;;;24.40;71.20;;;;;;4956473;28;20051;-73
2021/06/11 05:42:43;;;;;;;11.95;10.85;;;25.10;69.30;;;;;;4962496;28;20115;-73
2021/06/11 05:45:09;;;;;;;13.05;11.85;;;26.20;67.10;;;;;;4963843;28;20050;-73
2021/06/11 05:47:40;;;;;;;12.10;10.90;;;26.90;64.80;;;;;;4972239;28;20035;-74
2021/06/11 05:50:08;;;;;;;13.40;12.30;;;25.30;67.90;;;;;;4971947;28;20477;-74
2021/06/11 05:52:37;;;;;;;12.60;11.45;;;24.30;70.30;;;;;;4967219;28;20066;-73
2021/06/11 05:55:04;;;;;;;13.90;12.70;;;24.20;70.20;;;;;;4955609;28;20035;-74
2021/06/11 05:57:31;;;;;;;12.65;11.50;;;24.90;68.90;;;;;;4955881;28;20038;-74
2021/06/11 05:59:58;;;;;;;12.88;11.77;;;25.20;67.00;;;;;;4967395;28;20042;-74
2021/06/11 06:02:24;;;;;;;13.02;11.82;;;25.40;66.60;;;;;;4970944;28;20051;-73
2021/06/11 06:04:51;;;;;;;13.57;12.18;;;25.60;66.30;;;;;;4958093;28;20031;-72
2021/06/11 06:07:17;;;;;;;12.65;11.32;;;26.80;64.30;;;;;;4954968;28;20054;-72
2021/06/11 06:09:44;;;;;;;13.82;12.57;;;25.70;66.50;;;;;;4971759;28;20557;-72
2021/06/11 06:12:10;;;;;;;12.80;11.68;;;24.90;68.30;;;;;;4970629;28;20061;-74
2021/06/11 06:14:37;;;;;;;12.95;11.77;;;24.90;68.30;;;;;;4971178;28;20038;-73
2021/06/11 06:17:04;;;;;;;11.75;10.75;;;25.10;67.00;;;;;;4953889;28;20034;-73
2021/06/11 06:19:31;;;;;;;11.30;10.30;;;24.30;68.30;;;;;;4952940;28;20039;-74
2021/06/11 06:21:57;;;;;;;11.38;10.45;;;24.20;70.00;;;;;;4953839;28;20050;-74
2021/06/11 06:24:24;;;;;;;11.85;10.85;;;24.40;69.10;;;;;;4953498;28;20047;-74
2021/06/11 06:26:50;;;;;;;11.70;10.55;;;23.70;69.90;;;;;;4966164;28;20031;-74
2021/06/11 06:29:16;;;;;;;13.40;11.18;;;24.00;69.30;;;;;;4968734;28;20039;-74
2021/06/11 06:31:43;;;;;;;12.52;11.45;;;23.40;71.10;;;;;;4953008;28;20044;-74
2021/06/11 06:34:09;;;;;;;12.25;11.05;;;23.20;71.90;;;;;;4954032;28;20027;-74
2021/06/11 06:36:35;;;;;;;11.85;10.82;;;23.30;70.70;;;;;;4952796;28;20396;-75
2021/06/11 06:39:06;;;;;;;11.23;10.23;;;23.90;72.10;;;;;;4968862;28;20050;-74
2021/06/11 06:41:33;;;;;;;11.35;10.35;;;24.50;68.30;;;;;;4959208;28;20031;-75
2021/06/11 06:43:59;;;;;;;10.95;10.02;;;24.30;68.70;;;;;;4953950;28;20038;-74
2021/06/11 06:46:26;;;;;;;11.52;10.52;;;24.70;67.80;;;;;;4961227;28;20066;-73
2021/06/11 06:48:53;;;;;;;10.60;9.60;;;24.10;69.20;;;;;;4964205;28;20039;-74
2021/06/11 06:51:23;;;;;;;11.20;10.20;;;24.40;70.00;;;;;;4953810;28;20043;-75
2021/06/11 06:53:49;;;;;;;9.98;9.07;;;26.00;64.60;;;;;;4974913;28;20054;-75
2021/06/11 06:56:17;;;;;;;9.60;8.68;;;25.70;64.70;;;;;;4969735;28;20026;-75
2021/06/11 06:58:44;;;;;;;10.63;9.70;;;25.30;65.80;;;;;;4960351;28;20035;-75
2021/06/11 07:01:10;;;;;;;9.70;8.77;;;24.80;66.30;;;;;;4956070;28;20043;-75
2021/06/11 07:03:36;;;;;;;10.30;9.48;;;24.80;67.30;;;;;;4962353;28;20041;-76
2021/06/11 07:06:03;;;;;;;9.40;8.60;;;24.50;67.90;;;;;;4958548;28;20035;-76
2021/06/11 07:08:31;;;;;;;9.73;8.85;;;25.40;66.20;;;;;;4953576;28;20031;-75
2021/06/11 07:10:59;;;;;;;9.73;8.85;;;25.00;67.00;;;;;;4954120;28;20467;-76
2021/06/11 07:13:27;;;;;;;11.63;8.57;;;25.60;65.60;;;;;;4954242;28;20031;-77
2021/06/11 07:15:53;;;;;;;8.80;7.93;;;25.40;65.20;;;;;;4966165;28;20037;-75
2021/06/11 07:18:20;;;;;;;9.40;8.60;;;25.80;65.40;;;;;;4970959;28;20487;-75
2021/06/11 07:20:46;;;;;;;8.35;7.68;;;25.60;64.50;;;;;;4953456;28;20042;-75
2021/06/11 07:23:12;;;;;;;10.05;8.18;;;25.90;63.50;;;;;;4953705;28;20039;-74
2021/06/11 07:25:38;;;;;;;8.80;8.00;;;26.30;63.00;;;;;;4972487;28;20050;-75
2021/06/11 07:28:04;;;;;;;10.00;9.18;;;26.50;63.30;;;;;;4959001;28;20022;-76
2021/06/11 07:30:31;;;;;;;8.98;8.15;;;25.40;63.70;;;;;;4963534;28;20058;-75
2021/06/11 07:32:58;;;;;;;9.15;8.23;;;25.20;63.20;;;;;;4973847;28;20053;-75
2021/06/11 07:35:25;;;;;;;8.80;7.32;;;25.40;63.90;;;;;;4957508;28;20460;-76
2021/06/11 07:37:51;;;;;;;8.73;7.10;;;26.50;63.30;;;;;;4968936;28;20034;-76
2021/06/11 07:40:17;;;;;;;8.68;7.97;;;28.70;60.60;;;;;;4960951;28;20023;-76
2021/06/11 07:42:43;;;;;;;8.48;7.65;;;27.10;59.90;;;;;;4960683;28;20042;-77
2021/06/11 07:45:11;;;;;;;9.75;8.85;;;26.10;63.30;;;;;;4975339;28;20024;-75
2021/06/11 07:47:37;;;;;;;10.93;9.38;;;26.00;62.20;;;;;;4971586;28;20373;-75
2021/06/11 07:50:05;;;;;;;9.75;7.95;;;25.70;63.90;;;;;;4957349;28;20027;-76
2021/06/11 07:52:35;;;;;;;9.38;8.52;;;26.30;63.20;;;;;;4956455;28;20226;-76
2021/06/11 07:55:02;;;;;;;;;;;26.20;61.50;;;;;;4957604;28;20030;-76
2021/06/11 07:57:28;;;;;;;10.30;9.40;;;26.10;61.70;;;;;;4963543;28;20374;-76
2021/06/11 07:59:54;;;;;;;10.65;9.70;;;26.50;60.60;;;;;;4986145;28;20040;-76
2021/06/11 08:02:20;;;;;;;10.25;9.27;;;25.80;61.30;;;;;;4965037;28;20038;-74
2021/06/11 08:04:47;;;;;;;9.88;9.02;;;25.10;62.60;;;;;;4973458;28;20269;-75
2021/06/11 08:07:15;;;;;;;10.45;9.45;;;26.30;60.80;;;;;;4965745;28;20043;-76
2021/06/11 08:09:43;;;;;;;10.32;8.43;;;26.10;60.40;;;;;;4956515;28;20036;-76
2021/06/11 08:12:11;;;;;;;9.52;8.02;;;26.70;60.00;;;;;;4971704;28;20043;-76
2021/06/11 08:14:37;;;;;;;13.70;7.95;;;27.80;58.60;;;;;;4956285;28;20042;-75
2021/06/11 08:17:03;;;;;;;8.52;7.72;;;28.90;56.00;;;;;;4979185;28;20033;-76
2021/06/11 08:19:30;;;;;;;11.30;10.20;;;29.90;56.50;;;;;;4978986;28;20024;-75
2021/06/11 08:21:56;;;;;;;10.82;9.73;;;30.20;54.20;;;;;;4958447;28;20388;-76
2021/06/11 08:24:23;;;;;;;10.32;9.00;;;29.00;55.40;;;;;;4955938;28;20042;-76
2021/06/11 08:26:49;;;;;;;10.02;9.13;;;29.30;55.10;;;;;;4964150;28;20035;-78
2021/06/11 08:29:15;;;;;;;10.68;9.77;;;28.30;55.80;;;;;;4960555;28;20054;-75
2021/06/11 08:31:44;;;;;;;12.85;10.55;;;27.10;58.50;;;;;;4959110;28;20047;-75
2021/06/11 08:34:10;;;;;;;11.88;10.77;;;26.40;59.00;;;;;;4960699;28;20035;-75
2021/06/11 08:36:36;;;;;;;10.00;9.18;;;26.60;58.80;;;;;;4963768;28;20066;-77
2021/06/11 08:39:03;;;;;;;11.20;9.98;;;26.80;58.30;;;;;;4973644;28;20030;-75
2021/06/11 08:41:31;;;;;;;14.82;10.70;;;26.30;59.10;;;;;;4973265;28;20031;-76
2021/06/11 08:43:59;;;;;;;11.65;10.45;;;27.70;56.90;;;;;;4966543;28;20456;-77
2021/06/11 08:46:27;;;;;;;13.07;11.77;;;27.20;57.70;;;;;;4956584;28;20055;-76
2021/06/11 08:48:54;;;;;;;13.85;12.00;;;26.40;58.90;;;;;;4955020;28;20108;-76
2021/06/11 08:51:21;;;;;;;22.83;14.05;;;25.90;59.70;;;;;;4955729;28;20042;-76
2021/06/11 08:53:47;;;;;;;13.13;11.68;;;26.40;59.20;;;;;;4961711;28;20041;-76
2021/06/11 08:56:13;;;;;;;18.73;16.77;;;28.30;57.00;;;;;;4972451;28;20038;-77
2021/06/11 08:58:40;;;;;;;19.77;17.30;;;29.50;55.10;;;;;;4973540;28;20035;-76
2021/06/11 09:01:07;;;;;;;18.52;16.90;;;30.30;53.70;;;;;;4973340;28;20476;-78
2021/06/11 09:03:47;;;;;;;21.15;19.15;;;31.30;52.40;;;;;;4958799;28;20039;-78
2021/06/11 09:06:14;;;;;;;20.02;18.23;;;32.00;50.40;;;;;;4955674;28;20038;-77
2021/06/11 09:08:53;;;;;;;19.88;18.05;;;30.70;51.00;;;;;;4970306;28;20035;-76
2021/06/11 09:11:36;;;;;;;19.37;17.57;;;30.70;51.20;;;;;;4962699;28;20047;-76
2021/06/11 09:14:11;;;;;;;21.25;19.10;;;29.60;53.20;;;;;;4972724;28;20519;-79
2021/06/11 09:16:43;;;;;;;21.80;19.45;;;29.00;53.20;;;;;;4973415;28;20038;-75
2021/06/11 09:19:13;;;;;;;22.17;20.35;;;27.90;54.10;;;;;;4968190;28;20382;-78
2021/06/11 09:21:44;;;;;;;23.55;21.10;;;27.90;54.70;;;;;;4954697;28;20046;-75
2021/06/11 09:24:26;;;;;;;22.27;20.23;;;28.30;53.50;;;;;;4961192;28;20034;-77
2021/06/11 09:27:05;;;;;;;26.10;23.70;;;28.90;53.00;;;;;;4965488;28;20476;-78
2021/06/11 09:29:43;;;;;;;;;;;28.70;53.80;;;;;;4955479;28;20381;-75
2021/06/11 09:32:21;;;;;;;25.50;23.00;;;28.20;53.70;;;;;;4954830;29;19930;-76
2021/06/11 09:34:52;;;;;;;26.63;23.90;;;28.70;53.80;;;;;;4966440;28;20468;-77
2021/06/11 09:37:28;;;;;;;23.85;21.42;;;28.80;54.00;;;;;;4961054;28;20754;-78
2021/06/11 09:40:07;;;;;;;28.00;25.20;;;30.00;54.10;;;;;;4955621;28;20086;-78
2021/06/11 09:42:35;;;;;;;25.20;22.73;;;30.40;51.50;;;;;;4964203;28;20046;-78
2021/06/11 09:45:10;;;;;;;28.37;25.77;;;29.40;52.80;;;;;;4964706;28;20043;-77
2021/06/11 09:47:44;;;;;;;23.98;21.77;;;28.30;54.20;;;;;;4954327;28;20641;-76
2021/06/11 09:50:16;;;;;;;21.55;19.65;;;29.10;53.70;;;;;;4958583;28;20058;-78
2021/06/11 09:52:56;;;;;;;21.98;19.70;;;29.30;53.60;;;;;;4961432;28;20046;-77
2021/06/11 09:55:30;;;;;;;24.75;18.70;;;29.00;51.80;;;;;;4959708;28;20492;-76
2021/06/11 09:58:08;;;;;;;20.25;18.20;;;28.90;52.40;;;;;;4970979;28;20051;-77
2021/06/11 10:00:46;;;;;;;19.10;17.20;;;30.20;51.50;;;;;;4960730;28;20062;-78
2021/06/11 10:03:15;;;;;;;23.77;21.35;;;31.60;50.80;;;;;;4964462;28;20493;-77
2021/06/11 10:05:42;;;;;;;21.40;19.50;;;32.10;49.00;;;;;;4971389;28;20050;-76
2021/06/11 10:08:09;;;;;;;23.85;21.40;;;30.10;50.40;;;;;;4972101;28;20034;-76
2021/06/11 10:10:38;;;;;;;23.15;20.77;;;28.90;52.60;;;;;;4970166;28;20487;-77
2021/06/11 10:13:04;;;;;;;21.42;19.17;;;28.60;53.00;;;;;;4959357;28;20050;-76
2021/06/11 10:15:32;;;;;;;23.05;20.83;;;29.50;51.50;;;;;;4972082;28;20385;-77
2021/06/11 10:17:59;;;;;;;19.55;17.55;;;30.00;50.90;;;;;;4973223;28;20057;-78
2021/06/11 10:20:26;;;;;;;18.85;17.08;;;29.70;49.80;;;;;;4972805;28;20372;-77
2021/06/11 10:22:53;;;;;;;20.33;17.08;;;29.00;51.80;;;;;;4972112;28;20042;-76
2021/06/11 10:25:20;;;;;;;12.27;11.02;;;27.90;52.50;;;;;;4973511;28;20412;-75
2021/06/11 10:27:48;;;;;;;15.88;14.20;;;27.70;53.40;;;;;;4972537;28;20027;-79
2021/06/11 10:30:14;;;;;;;20.02;14.45;;;27.90;52.10;;;;;;4969831;28;20055;-80
2021/06/11 10:32:48;;;;;;;15.65;12.07;;;28.10;52.60;;;;;;4953394;28;20046;-80
2021/06/11 10:35:44;;;;;;;14.95;13.43;;;28.10;52.20;;;;;;4964343;28;20062;-79
2021/06/11 10:38:32;;;;;;;7.97;7.28;;;27.50;52.30;;;;;;4964963;28;20034;-79
2021/06/11 10:41:06;;;;;;;11.35;9.50;;;27.50;52.30;;;;;;4955170;28;20026;-78
2021/06/11 10:43:43;;;;;;;10.73;8.20;;;27.50;52.50;;;;;;4953519;28;20031;-80
2021/06/11 10:46:31;;;;;;;7.43;6.75;;;27.80;52.70;;;;;;4953533;28;20039;-79
2021/06/11 10:49:07;;;;;;;6.95;6.25;;;27.60;51.80;;;;;;4954482;28;20042;-83
2021/06/11 10:51:51;;;;;;;6.57;5.97;;;27.40;50.70;;;;;;4964603;28;20058;-78
2021/06/11 10:54:20;;;;;;;7.10;6.40;;;27.70;51.40;;;;;;4954097;28;20480;-76
2021/06/11 10:56:59;;;;;;;7.35;6.75;;;27.90;50.70;;;;;;4964858;28;20039;-80
2021/06/11 10:59:42;;;;;;;6.50;5.95;;;27.70;50.90;;;;;;4971724;28;20039;-79
2021/06/11 11:02:08;;;;;;;6.95;5.50;;;28.00;50.50;;;;;;4972563;28;20038;-79
2021/06/11 11:04:40;;;;;;;5.43;4.93;;;27.90;50.10;;;;;;4969872;28;20424;-78
2021/06/11 11:07:25;;;;;;;6.20;4.57;;;27.80;48.50;;;;;;4960763;28;20482;-79
2021/06/11 11:09:57;;;;;;;4.10;3.70;;;27.50;48.60;;;;;;4959852;28;20031;-80
2021/06/11 11:12:32;;;;;;;5.43;4.93;;;27.70;48.50;;;;;;4957639;28;20035;-79
2021/06/11 11:15:00;;;;;;;5.93;4.15;;;27.80;48.30;;;;;;4957827;28;20052;-79
2021/06/11 11:17:31;;;;;;;5.43;4.80;;;28.00;49.10;;;;;;4974723;28;20051;-79
2021/06/11 11:20:05;;;;;;;5.15;4.65;;;28.10;48.60;;;;;;4975989;28;20459;-77
2021/06/11 11:22:40;;;;;;;4.35;3.95;;;28.10;49.20;;;;;;4972803;28;20038;-78
2021/06/11 11:25:15;;;;;;;5.38;4.05;;;28.20;49.50;;;;;;4974225;28;20381;-82
2021/06/11 11:27:54;;;;;;;4.68;3.60;;;27.80;48.10;;;;;;4973821;28;20030;-77
2021/06/11 11:30:26;;;;;;;3.58;3.28;;;27.80;48.70;;;;;;4973591;28;20077;-81
2021/06/11 11:32:57;;;;;;;4.18;3.47;;;27.50;49.30;;;;;;4973062;28;20039;-79
2021/06/11 11:35:28;;;;;;;4.55;2.47;;;27.40;49.60;;;;;;4961788;28;20038;-79
2021/06/11 11:37:58;;;;;;;4.70;2.80;;;27.70;48.40;;;;;;4974525;28;20027;-79
2021/06/11 11:40:30;;;;;;;3.67;2.47;;;28.00;48.50;;;;;;4963628;28;20043;-80
2021/06/11 11:43:02;;;;;;;3.67;2.63;;;27.80;49.00;;;;;;4974322;28;20491;-80
2021/06/11 11:45:31;;;;;;;4.03;2.70;;;27.60;49.40;;;;;;4961319;28;20038;-81
2021/06/11 11:48:02;;;;;;;3.58;2.30;;;27.90;48.50;;;;;;4957137;28;20027;-85
2021/06/11 11:50:32;;;;;;;3.67;1.83;;;28.10;48.30;;;;;;4957068;28;20035;-82
2021/06/11 11:53:02;;;;;;;3.22;1.77;;;28.20;47.20;;;;;;4955622;28;20051;-79
2021/06/11 11:55:28;;;;;;;2.45;2.20;;;27.90;48.20;;;;;;4972619;28;20053;-77
2021/06/11 11:57:56;;;;;;;2.47;2.25;;;28.00;48.60;;;;;;4963956;28;20484;-76
2021/06/11 12:00:28;;;;;;;2.65;2.17;;;28.20;48.70;;;;;;4989353;28;20054;-77
2021/06/11 12:02:57;;;;;;;2.58;2.15;;;27.80;49.60;;;;;;4961670;28;20039;-77
2021/06/11 12:05:24;;;;;;;3.27;2.10;;;28.20;48.50;;;;;;4956696;28;20051;-77
2021/06/11 12:07:50;;;;;;;3.65;3.00;;;28.20;47.20;;;;;;4963537;28;20301;-77
2021/06/11 12:10:16;;;;;;;2.30;1.80;;;27.90;49.10;;;;;;4961518;28;20389;-76
2021/06/11 12:12:43;;;;;;;3.05;1.58;;;28.00;47.80;;;;;;4956279;28;20405;-78
2021/06/11 12:15:09;;;;;;;2.40;1.80;;;28.00;47.00;;;;;;4970638;28;20039;-78
2021/06/11 12:17:36;;;;;;;3.50;3.20;;;28.40;48.20;;;;;;4958812;28;20031;-74
2021/06/11 12:20:03;;;;;;;3.92;3.50;;;28.90;49.20;;;;;;4956318;29;20047;-80
2021/06/11 12:22:30;;;;;;;4.82;3.33;;;28.60;49.40;;;;;;4965351;28;20464;-77
2021/06/11 12:24:56;;;;;;;4.65;3.25;;;28.20;49.80;;;;;;4956212;28;20453;-78
2021/06/11 12:27:22;;;;;;;4.82;3.70;;;28.30;50.80;;;;;;4957809;28;20036;-78
2021/06/11 12:29:48;;;;;;;4.38;3.15;;;28.20;49.90;;;;;;4955765;28;20031;-78
2021/06/11 12:32:15;;;;;;;5.28;2.97;;;28.20;50.00;;;;;;4955953;28;20377;-78
2021/06/11 12:34:41;;;;;;;4.00;3.10;;;28.50;50.10;;;;;;4955925;28;20039;-78
2021/06/11 12:37:08;;;;;;;3.97;3.40;;;28.70;49.50;;;;;;4955882;28;20047;-78
2021/06/11 12:39:35;;;;;;;4.65;2.97;;;28.60;49.40;;;;;;4957369;28;20042;-79
2021/06/11 12:42:14;;;;;;;5.75;3.33;;;28.80;50.00;;;;;;4956329;28;20050;-76
2021/06/11 12:44:40;;;;;;;4.78;2.85;;;28.90;48.40;;;;;;4955416;28;20432;-76